createdAt,value
2022-12-09T00:02:20.532Z,99742.84
2022-12-09T00:05:50.960Z,99742.16
2022-12-09T00:09:18.427Z,99736.38
2022-12-09T00:12:45.488Z,99737.52
2022-12-09T00:16:17.016Z,99739.59
2022-12-09T00:19:45.543Z,99741.70
2022-12-09T00:23:12.798Z,99740.94
2022-12-09T00:26:39.971Z,99738.09
2022-12-09T00:30:11.756Z,99744.46
2022-12-09T00:33:39.077Z,99747.34
2022-12-09T00:37:06.613Z,99757.06
2022-12-09T00:40:33.856Z,99764.00
2022-12-09T00:44:01.305Z,99768.52
2022-12-09T00:47:29.686Z,99769.38
2022-12-09T00:50:57.770Z,99777.63
2022-12-09T00:54:28.252Z,99777.77
2022-12-09T00:57:55.583Z,99785.16
2022-12-09T01:01:28.347Z,99787.58
2022-12-09T01:04:58.060Z,99790.80
2022-12-09T01:08:25.447Z,99792.71
2022-12-09T01:11:52.698Z,99791.30
2022-12-09T01:15:19.386Z,99788.14
2022-12-09T01:18:47.428Z,99784.11
2022-12-09T01:22:14.936Z,99785.74
2022-12-09T01:25:45.962Z,99788.54
2022-12-09T01:29:13.239Z,99789.84
2022-12-09T01:32:41.773Z,99787.68
2022-12-09T01:36:11.828Z,99786.57
2022-12-09T01:39:38.839Z,99793.72
2022-12-09T01:43:13.351Z,99786.14
2022-12-09T01:46:41.304Z,99795.48
2022-12-09T01:50:11.864Z,99798.52
2022-12-09T01:53:43.362Z,99796.89
2022-12-09T01:57:12.611Z,99794.37
2022-12-09T02:00:39.440Z,99792.70
2022-12-09T02:04:06.864Z,99796.15
2022-12-09T02:07:35.746Z,99795.50
2022-12-09T02:11:24.284Z,99793.63
2022-12-09T02:14:59.615Z,99789.42
2022-12-09T02:18:31.004Z,99788.45
2022-12-09T02:22:01.756Z,99787.95
2022-12-09T02:25:38.180Z,99791.89
2022-12-09T02:29:47.224Z,99790.66
2022-12-09T02:33:27.725Z,99796.07
2022-12-09T02:37:04.003Z,99804.42
2022-12-09T02:40:35.492Z,99805.61
2022-12-09T02:44:08.166Z,99809.02
2022-12-09T02:47:38.177Z,99802.70
2022-12-09T02:51:09.027Z,99799.59
2022-12-09T02:54:39.100Z,99798.50
2022-12-09T02:58:07.365Z,99797.05
2022-12-09T03:01:43.044Z,99794.77
2022-12-09T03:05:22.663Z,99802.29
2022-12-09T03:08:58.383Z,99798.14
2022-12-09T03:12:32.084Z,99799.70
2022-12-09T03:16:10.205Z,99800.36
2022-12-09T03:19:42.429Z,99801.90
2022-12-09T03:23:11.055Z,99803.20
2022-12-09T03:26:41.186Z,99803.10
2022-12-09T03:30:12.832Z,99805.55
2022-12-09T03:33:42.685Z,99805.02
2022-12-09T03:37:12.706Z,99805.30
2022-12-09T03:40:40.717Z,99806.23
2022-12-09T03:44:14.094Z,99804.85
2022-12-09T03:47:41.880Z,99806.05
2022-12-09T03:51:13.799Z,99811.52
2022-12-09T03:54:45.507Z,99807.16
2022-12-09T03:58:16.357Z,99808.30
2022-12-09T04:01:45.988Z,99808.24
2022-12-09T04:05:14.587Z,99810.72
2022-12-09T04:08:41.210Z,99807.63
2022-12-09T04:12:08.926Z,99806.98
2022-12-09T04:15:36.045Z,99803.03
2022-12-09T04:19:02.724Z,99806.70
2022-12-09T04:22:30.075Z,99806.98
2022-12-09T04:25:56.821Z,99810.00
2022-12-09T04:29:23.131Z,99810.94
2022-12-09T04:32:54.428Z,99815.60
2022-12-09T04:36:23.089Z,99824.16
2022-12-09T04:39:50.439Z,99819.93
2022-12-09T04:43:17.189Z,99811.14
2022-12-09T04:46:44.263Z,99814.61
2022-12-09T04:50:13.817Z,99813.41
2022-12-09T04:53:42.622Z,99816.52
2022-12-09T04:57:12.434Z,99821.42
2022-12-09T05:00:40.492Z,99820.02
2022-12-09T05:04:07.216Z,99816.66
2022-12-09T05:07:34.430Z,99813.89
2022-12-09T05:11:01.691Z,99819.70
2022-12-09T05:14:28.614Z,99821.62
2022-12-09T05:17:55.401Z,99824.91
2022-12-09T05:21:23.277Z,99830.04
2022-12-09T05:24:50.419Z,99830.73
2022-12-09T05:28:17.931Z,99832.15
2022-12-09T05:31:44.811Z,99834.02
2022-12-09T05:35:12.639Z,99837.45
2022-12-09T05:38:39.822Z,99833.11
2022-12-09T05:42:07.773Z,99834.29
2022-12-09T05:45:35.708Z,99829.96
2022-12-09T05:49:03.904Z,99828.41
2022-12-09T05:52:33.471Z,99830.44
2022-12-09T05:56:02.379Z,99831.23
2022-12-09T05:59:30.009Z,99830.70
2022-12-09T06:02:57.752Z,99827.25
2022-12-09T06:06:28.422Z,99829.50
2022-12-09T06:09:56.466Z,99831.13
2022-12-09T06:13:24.626Z,99834.88
2022-12-09T06:16:51.844Z,99831.23
2022-12-09T06:20:19.563Z,99829.10
2022-12-09T06:23:46.943Z,99831.69
2022-12-09T06:27:17.807Z,99836.92
2022-12-09T06:30:49.039Z,99840.56
2022-12-09T06:34:16.450Z,99842.15
2022-12-09T06:37:43.546Z,99847.46
2022-12-09T06:41:12.377Z,99849.70
2022-12-09T06:44:40.414Z,99851.11
2022-12-09T06:48:09.219Z,99855.02
2022-12-09T06:51:36.974Z,99857.49
2022-12-09T06:55:05.853Z,99862.30
2022-12-09T06:58:33.875Z,99861.33
2022-12-09T07:02:00.800Z,99864.23
2022-12-09T07:05:29.033Z,99866.37
2022-12-09T07:08:59.272Z,99870.59
2022-12-09T07:12:26.638Z,99872.70
2022-12-09T07:15:55.350Z,99878.42
2022-12-09T07:19:25.497Z,99878.16
2022-12-09T07:22:52.672Z,99881.05
2022-12-09T07:26:20.647Z,99890.08
2022-12-09T07:29:47.543Z,99896.70
2022-12-09T07:33:15.387Z,99898.16
2022-12-09T07:36:42.579Z,99899.27
2022-12-09T07:40:11.783Z,99896.24
2022-12-09T07:43:40.465Z,99895.83
2022-12-09T07:47:07.738Z,99896.80
2022-12-09T07:50:34.512Z,99896.83
2022-12-09T07:54:01.978Z,99898.05
2022-12-09T07:57:29.106Z,99899.64
2022-12-09T08:00:59.737Z,99903.55
2022-12-09T08:04:33.645Z,99900.23
2022-12-09T08:08:01.409Z,99899.40
2022-12-09T08:11:32.262Z,99900.55
2022-12-09T08:14:59.649Z,99898.65
2022-12-09T08:18:26.727Z,99900.66
2022-12-09T08:21:54.918Z,99901.98
2022-12-09T08:25:22.380Z,99905.93
2022-12-09T08:28:49.557Z,99905.23
2022-12-09T08:32:18.788Z,99903.64
2022-12-09T08:35:46.988Z,99907.39
2022-12-09T08:39:15.676Z,99907.59
2022-12-09T08:42:43.271Z,99908.60
2022-12-09T08:46:11.211Z,99912.14
2022-12-09T08:49:38.590Z,99905.29
2022-12-09T08:53:05.478Z,99917.23
2022-12-09T08:56:34.250Z,99920.17
2022-12-09T09:00:01.269Z,99914.71
2022-12-09T09:03:30.621Z,99917.42
2022-12-09T09:06:57.088Z,99916.75
2022-12-09T09:10:24.074Z,99912.13
2022-12-09T09:13:52.565Z,99912.78
2022-12-09T09:17:19.612Z,99910.61
2022-12-09T09:20:49.085Z,99903.42
2022-12-09T09:24:19.005Z,99902.90
2022-12-09T09:27:45.885Z,99900.56
2022-12-09T09:31:22.167Z,99898.89
2022-12-09T09:34:50.863Z,99894.23
2022-12-09T09:38:18.221Z,99894.21
2022-12-09T09:41:54.531Z,99892.20
2022-12-09T09:45:25.019Z,99887.92
2022-12-09T09:48:53.756Z,99888.06
2022-12-09T09:52:24.703Z,99885.46
2022-12-09T09:55:58.277Z,99883.00
2022-12-09T09:59:36.511Z,99882.73
2022-12-09T10:03:12.401Z,99883.96
2022-12-09T10:06:51.979Z,99887.40
2022-12-09T10:10:32.490Z,99883.60
2022-12-09T10:14:12.049Z,99887.34
2022-12-09T10:17:47.871Z,99894.04
2022-12-09T10:21:30.081Z,99895.13
2022-12-09T10:24:59.839Z,99893.43
2022-12-09T10:28:29.178Z,99892.02
2022-12-09T10:31:56.137Z,99896.82
2022-12-09T10:35:25.607Z,99903.45
2022-12-09T10:38:52.524Z,99906.22
2022-12-09T10:42:37.368Z,99906.77
2022-12-09T10:46:17.721Z,99908.33
2022-12-09T10:49:49.484Z,99908.67
2022-12-09T10:53:18.695Z,99902.53
2022-12-09T10:57:04.392Z,99900.16
2022-12-09T11:00:35.078Z,99896.01
2022-12-09T11:04:13.574Z,99900.59
2022-12-09T11:11:21.693Z,99904.98
2022-12-09T11:14:55.639Z,99908.65
2022-12-09T11:18:25.658Z,99914.44
2022-12-09T11:21:52.419Z,99913.59
2022-12-09T11:25:25.117Z,99915.48
2022-12-09T11:29:04.594Z,99911.45
2022-12-09T11:32:31.615Z,99908.59
2022-12-09T11:36:03.691Z,99906.98
2022-12-09T11:39:32.490Z,99909.55
2022-12-09T11:42:59.916Z,99909.86
2022-12-09T11:46:29.254Z,99908.41
2022-12-09T11:50:05.448Z,99904.36
2022-12-09T11:53:34.813Z,99903.98
2022-12-09T11:57:06.904Z,99907.33
2022-12-09T12:00:47.982Z,99905.66
2022-12-09T12:04:16.085Z,99908.13
2022-12-09T12:07:48.062Z,99906.20
2022-12-09T12:11:18.948Z,99900.04
2022-12-09T12:14:47.543Z,99893.29
2022-12-09T12:18:19.846Z,99892.99
2022-12-09T12:21:57.530Z,99891.37
2022-12-09T12:25:46.592Z,99886.89
2022-12-09T12:29:28.914Z,99881.20
2022-12-09T12:33:59.751Z,99875.67
2022-12-09T12:37:17.357Z,99871.78
2022-12-09T12:40:56.422Z,99869.71
2022-12-09T12:44:54.657Z,99870.01
2022-12-09T12:48:31.732Z,99866.11
2022-12-09T12:52:54.768Z,99867.00
2022-12-09T12:56:08.758Z,99868.77
2022-12-09T12:59:42.933Z,99873.67
2022-12-09T13:03:21.162Z,99871.56
2022-12-09T13:06:52.746Z,99875.02
2022-12-09T13:10:27.898Z,99878.05
2022-12-09T13:13:57.364Z,99879.81
2022-12-09T13:17:28.461Z,99883.79
2022-12-09T13:21:00.012Z,99885.17
2022-12-09T13:24:42.437Z,99884.31
2022-12-09T13:28:15.709Z,99884.77
2022-12-09T13:31:51.251Z,99890.02
2022-12-09T13:35:25.904Z,99892.19
2022-12-09T13:38:56.559Z,99894.30
2022-12-09T13:42:56.670Z,99891.48
2022-12-09T13:46:27.296Z,99888.88
2022-12-09T13:49:59.953Z,99892.17
2022-12-09T13:53:32.766Z,99893.89
2022-12-09T13:57:17.863Z,99896.84
2022-12-09T14:01:04.315Z,99899.08
2022-12-09T14:04:38.287Z,99895.79
2022-12-09T14:08:17.230Z,99893.77
2022-12-09T14:11:48.554Z,99894.64
2022-12-09T14:15:44.545Z,99892.04
2022-12-09T14:19:47.878Z,99885.16
2022-12-09T14:23:23.886Z,99883.56
2022-12-09T14:27:12.680Z,99880.86
2022-12-09T14:31:11.040Z,99874.70
2022-12-09T14:34:45.114Z,99877.35
2022-12-09T14:38:24.143Z,99878.61
2022-12-09T14:41:56.914Z,99878.98
2022-12-09T14:45:32.493Z,99873.34
2022-12-09T14:49:02.825Z,99875.49
2022-12-09T14:52:34.422Z,99874.89
2022-12-09T14:56:01.745Z,99879.67
2022-12-09T14:59:34.046Z,99878.73
2022-12-09T15:06:50.491Z,99879.55
2022-12-09T15:10:25.393Z,99875.31
2022-12-09T15:14:17.513Z,99874.51
2022-12-09T15:17:47.710Z,99875.28
2022-12-09T15:21:27.916Z,99873.20
2022-12-09T15:24:56.103Z,99878.62
2022-12-09T15:28:26.606Z,99880.09
2022-12-09T15:31:53.861Z,99872.73
2022-12-09T15:35:23.823Z,99868.72
2022-12-09T15:38:56.314Z,99871.35
2022-12-09T15:42:28.178Z,99873.54
2022-12-09T15:45:57.809Z,99869.04
2022-12-09T15:49:28.167Z,99871.95
2022-12-09T15:52:57.501Z,99868.20
2022-12-09T15:56:30.628Z,99863.77
2022-12-09T16:00:00.330Z,99870.14
2022-12-09T16:03:30.436Z,99875.74
2022-12-09T16:06:57.237Z,99874.69
2022-12-09T16:10:27.211Z,99874.67
2022-12-09T16:14:10.488Z,99871.31
2022-12-09T16:17:52.668Z,99872.80
2022-12-09T16:21:30.454Z,99867.32
2022-12-09T16:25:17.380Z,99867.32
2022-12-09T16:28:46.530Z,99865.64
2022-12-09T16:32:30.722Z,99863.14
2022-12-09T16:36:10.435Z,99866.92
2022-12-09T16:39:38.320Z,99863.59
2022-12-09T16:43:22.304Z,99861.64
2022-12-09T16:46:48.651Z,99861.83
2022-12-09T16:50:16.264Z,99859.05
2022-12-09T16:53:47.318Z,99858.46
2022-12-09T16:57:17.779Z,99861.58
2022-12-09T17:00:44.309Z,99856.50
2022-12-09T17:04:16.384Z,99856.19
2022-12-09T17:07:43.208Z,99860.06
2022-12-09T17:11:10.269Z,99863.15
2022-12-09T17:14:36.899Z,99864.08
2022-12-09T17:18:05.185Z,99857.70
2022-12-09T17:21:32.238Z,99856.23
2022-12-09T17:25:01.806Z,99855.61
2022-12-09T17:28:33.273Z,99859.38
2022-12-09T17:32:00.260Z,99868.71
2022-12-09T17:35:27.382Z,99865.99
2022-12-09T17:38:55.522Z,99859.70
2022-12-09T17:42:22.326Z,99862.36
2022-12-09T17:45:48.881Z,99867.40
2022-12-09T17:49:15.790Z,99863.45
2022-12-09T17:52:43.271Z,99858.02
2022-12-09T17:56:14.340Z,99860.10
2022-12-09T17:59:42.529Z,99858.72
2022-12-09T18:03:17.905Z,99860.20
2022-12-09T18:06:49.425Z,99856.00
2022-12-09T18:10:17.007Z,99856.59
2022-12-09T18:13:48.126Z,99858.85
2022-12-09T18:17:17.678Z,99861.80
2022-12-09T18:20:51.577Z,99865.80
2022-12-09T18:24:36.762Z,99863.75
2022-12-09T18:28:33.220Z,99863.14
2022-12-09T18:32:03.392Z,99866.69
2022-12-09T18:35:35.833Z,99867.84
2022-12-09T18:39:03.519Z,99868.41
2022-12-09T18:42:37.385Z,99865.60
2022-12-09T18:46:19.283Z,99864.39
2022-12-09T18:49:52.893Z,99868.83
2022-12-09T18:53:20.311Z,99870.98
2022-12-09T18:56:48.531Z,99875.71
2022-12-09T19:00:22.259Z,99877.33
2022-12-09T19:03:52.461Z,99875.48
2022-12-09T19:07:31.972Z,99880.30
2022-12-09T19:11:06.743Z,99888.84
2022-12-09T19:14:40.302Z,99885.36
2022-12-09T19:18:08.225Z,99883.67
2022-12-09T19:21:35.622Z,99882.91
2022-12-09T19:25:04.558Z,99886.06
2022-12-09T19:28:32.795Z,99880.53
2022-12-09T19:32:01.241Z,99883.29
2022-12-09T19:35:30.950Z,99880.50
2022-12-09T19:39:00.767Z,99877.66
2022-12-09T19:42:30.668Z,99877.27
2022-12-09T19:46:12.219Z,99877.19
2022-12-09T19:49:47.690Z,99880.61
2022-12-09T19:53:15.231Z,99876.96
2022-12-09T19:56:54.944Z,99878.54
2022-12-09T20:00:50.531Z,99880.10
2022-12-09T20:04:47.561Z,99877.97
2022-12-09T20:08:10.436Z,99882.65
2022-12-09T20:11:40.744Z,99883.01
2022-12-09T20:15:09.288Z,99883.68
2022-12-09T20:18:36.468Z,99879.41
2022-12-09T20:22:03.212Z,99875.98
2022-12-09T20:25:36.657Z,99882.65
2022-12-09T20:29:06.490Z,99883.15
2022-12-09T20:32:33.864Z,99881.50
2022-12-09T20:36:08.339Z,99878.28
2022-12-09T20:39:35.527Z,99882.27
2022-12-09T20:43:02.229Z,99879.54
2022-12-09T20:46:32.675Z,99878.02
2022-12-09T20:49:59.207Z,99881.27
2022-12-09T20:53:25.789Z,99882.61
2022-12-09T20:56:54.931Z,99884.76
2022-12-09T21:00:22.417Z,99885.84
2022-12-09T21:03:49.798Z,99886.67
2022-12-09T21:07:17.041Z,99883.14
2022-12-09T21:10:46.532Z,99882.47
2022-12-09T21:14:18.339Z,99883.40
2022-12-09T21:17:46.902Z,99882.81
2022-12-09T21:21:14.384Z,99876.58
2022-12-09T21:24:41.220Z,99875.27
2022-12-09T21:28:11.524Z,99879.77
2022-12-09T21:31:41.055Z,99883.56
2022-12-09T21:35:09.269Z,99881.98
2022-12-09T21:38:36.481Z,99881.10
2022-12-09T21:42:03.462Z,99879.93
2022-12-09T21:45:30.645Z,99876.06
2022-12-09T21:49:03.249Z,99876.83
2022-12-09T21:52:30.988Z,99871.45
2022-12-09T21:56:02.032Z,99871.23
2022-12-09T21:59:29.292Z,99869.16
2022-12-09T22:02:56.447Z,99864.21
2022-12-09T22:06:24.393Z,99851.87
2022-12-09T22:09:51.896Z,99861.40
2022-12-09T22:13:18.881Z,99855.62
2022-12-09T22:16:47.552Z,99854.41
2022-12-09T22:20:54.019Z,99852.92
2022-12-09T22:24:05.695Z,99847.90
2022-12-09T22:27:35.872Z,99842.09
2022-12-09T22:31:03.437Z,99849.11
2022-12-09T22:34:30.147Z,99853.48
2022-12-09T22:37:59.215Z,99851.83
2022-12-09T22:41:30.040Z,99856.41
2022-12-09T22:44:56.668Z,99855.33
2022-12-09T22:48:23.087Z,99858.02
2022-12-09T22:51:50.107Z,99860.02
2022-12-09T22:55:16.951Z,99861.25
2022-12-09T22:58:45.604Z,99862.27
2022-12-09T23:02:18.788Z,99860.11
2022-12-09T23:05:44.260Z,99864.50
2022-12-09T23:09:14.903Z,99863.61
2022-12-09T23:12:44.588Z,99867.63
2022-12-09T23:16:16.191Z,99868.58
2022-12-09T23:19:42.989Z,99869.44
2022-12-09T23:23:09.932Z,99870.48
2022-12-09T23:26:45.137Z,99870.46
2022-12-09T23:30:14.292Z,99866.90
2022-12-09T23:33:42.877Z,99867.79
2022-12-09T23:37:09.863Z,99867.36
2022-12-09T23:40:36.803Z,99865.48
2022-12-09T23:44:03.529Z,99866.45
2022-12-09T23:47:30.794Z,99874.96
2022-12-09T23:50:57.430Z,99881.27
2022-12-09T23:54:30.523Z,99883.66
2022-12-09T23:57:57.778Z,99879.55
